Terminal Aerodrome Forecast
Issued by NWS Twin Cities, MN

Home | Current Version | Previous Version | Graphics & Text | Print | Product List | Glossary On
Versions: 1 2 3 4 5 6 7 8 9 10 11 12 13 14 15 16 17
448
FTUS43 KMPX 301015 AAA
TAFEAU
TAF AMD
KEAU 301015Z 3010/3106 22006KT P6SM SCT030 BKN120
     FM301400 30005KT P6SM SCT120 BKN250
     FM301700 33008KT P6SM SCT250=

USA.gov is the U.S. government's official web portal to all federal, state and local government web resources and services.